Time;durP1;ratioP1;P1;durP2;ratioP2;P2;SDS_P1;SDS_P2;PMS_P1;PMS_P2;Temp;Humidity;BMP_temperature;BMP_pressure;BME280_temperature;BME280_humidity;BME280_pressure;Samples;Min_cycle;Max_cycle;Signal;HPM_P1;HPM_P2
2021/03/04 00:01:19;;;;;;;27.10;12.13;;;;;;;2.92;92.64;101282.19;5008909;28;20794;-73
2021/03/04 00:03:45;;;;;;;25.27;12.40;;;;;;;2.86;92.47;101276.06;5008298;28;20236;-73
2021/03/04 00:06:11;;;;;;;25.00;12.87;;;;;;;2.82;93.00;101268.28;5015702;28;20783;-73
2021/03/04 00:08:37;;;;;;;25.40;12.33;;;;;;;2.77;93.15;101272.50;5021486;28;20204;-73
2021/03/04 00:11:03;;;;;;;23.67;11.87;;;;;;;2.79;93.61;101277.66;5007271;28;20310;-73
2021/03/04 00:13:29;;;;;;;25.87;12.33;;;;;;;2.72;93.63;101274.13;5012707;28;20752;-73
2021/03/04 00:15:55;;;;;;;25.80;12.40;;;;;;;2.69;93.81;101281.81;5013234;28;20196;-73
2021/03/04 00:18:22;;;;;;;23.87;12.43;;;;;;;2.67;94.20;101283.47;5019051;28;20285;-72
2021/03/04 00:20:49;;;;;;;30.13;12.20;;;;;;;2.62;94.29;101280.84;5015177;28;20220;-73
2021/03/04 00:23:16;;;;;;;29.50;12.40;;;;;;;2.61;94.40;101280.81;5008708;28;20204;-73
2021/03/04 00:25:42;;;;;;;26.20;12.57;;;;;;;2.60;95.11;101276.50;5011349;28;20219;-72
2021/03/04 00:28:08;;;;;;;24.80;12.50;;;;;;;2.56;95.15;101269.56;5013947;28;20200;-72
2021/03/04 00:30:34;;;;;;;24.97;13.00;;;;;;;2.51;94.85;101273.78;5009852;28;20660;-72
2021/03/04 00:33:00;;;;;;;26.37;12.43;;;;;;;2.45;95.30;101270.25;5018832;28;20200;-73
2021/03/04 00:35:26;;;;;;;27.33;13.67;;;;;;;2.38;95.35;101276.13;5009209;28;20207;-73
2021/03/04 00:37:52;;;;;;;25.50;13.47;;;;;;;2.33;95.80;101274.31;5001037;28;20212;-73
2021/03/04 00:40:21;;;;;;;26.80;12.13;;;;;;;2.30;95.96;101274.25;5010937;28;20220;-73
2021/03/04 00:42:48;;;;;;;25.07;13.27;;;;;;;2.26;96.09;101275.91;5014872;28;20197;-72
2021/03/04 00:45:16;;;;;;;28.77;12.90;;;;;;;2.21;96.32;101274.94;5011041;28;20200;-72
2021/03/04 00:47:42;;;;;;;27.63;13.53;;;;;;;2.16;96.51;101277.44;5007263;28;20208;-73
2021/03/04 00:50:10;;;;;;;24.80;12.47;;;;;;;2.12;96.65;101267.06;5012669;28;20221;-73
2021/03/04 00:52:36;;;;;;;27.87;13.93;;;;;;;2.06;97.12;101273.84;5021974;28;20226;-73
2021/03/04 00:55:03;;;;;;;28.67;13.30;;;;;;;2.01;97.31;101261.72;5016386;28;20571;-73
2021/03/04 00:57:30;;;;;;;30.80;14.40;;;;;;;1.95;97.39;101265.03;5007811;28;20209;-73
2021/03/04 00:59:56;;;;;;;26.67;13.03;;;;;;;1.92;97.70;101264.09;5012356;28;20204;-73
2021/03/04 01:02:22;;;;;;;30.97;12.63;;;;;;;1.96;98.44;101258.19;5020063;28;20231;-72
2021/03/04 01:04:48;;;;;;;25.60;12.67;;;;;;;1.93;98.36;101259.00;5019081;28;20338;-72
2021/03/04 01:07:14;;;;;;;31.33;14.00;;;;;;;1.92;98.68;101252.13;5008889;28;20231;-73
2021/03/04 01:09:40;;;;;;;27.53;13.23;;;;;;;1.88;98.76;101250.31;5015372;28;20201;-72
2021/03/04 01:12:07;;;;;;;31.23;13.60;;;;;;;1.81;98.48;101245.88;5004674;28;20259;-73
2021/03/04 01:14:34;;;;;;;28.83;13.80;;;;;;;1.76;98.72;101240.69;5009177;28;20203;-72
2021/03/04 01:17:00;;;;;;;26.90;13.63;;;;;;;1.71;98.34;101242.28;5010736;28;20189;-72
2021/03/04 01:19:27;;;;;;;28.47;14.27;;;;;;;1.68;99.00;101237.94;4994494;28;20274;-72
2021/03/04 01:21:53;;;;;;;31.97;14.73;;;;;;;1.67;99.33;101237.91;5006035;28;20213;-72
2021/03/04 01:24:19;;;;;;;30.37;13.83;;;;;;;1.67;99.86;101233.66;5014180;28;20642;-72
2021/03/04 01:26:45;;;;;;;28.70;13.77;;;;;;;1.66;99.98;101223.31;5018282;28;20216;-72
2021/03/04 01:29:11;;;;;;;29.07;13.73;;;;;;;1.71;100.00;101226.84;5016853;28;20230;-73
2021/03/04 01:31:37;;;;;;;29.43;14.30;;;;;;;1.79;100.00;101220.13;5014722;28;20227;-72
2021/03/04 01:34:03;;;;;;;35.87;15.53;;;;;;;1.85;100.00;101217.69;5010446;28;20585;-73
2021/03/04 01:36:29;;;;;;;35.33;15.43;;;;;;;1.87;100.00;101215.16;5022882;28;20195;-72
2021/03/04 01:38:55;;;;;;;33.20;16.53;;;;;;;1.93;100.00;101210.13;5013080;28;20201;-72
2021/03/04 01:41:21;;;;;;;33.27;16.77;;;;;;;1.99;100.00;101209.38;5013258;28;20690;-72
2021/03/04 01:43:47;;;;;;;33.80;16.03;;;;;;;1.98;100.00;101205.94;5020679;28;20294;-73
2021/03/04 01:46:13;;;;;;;37.37;18.17;;;;;;;2.04;100.00;101203.47;5022106;28;20218;-73
2021/03/04 01:48:41;;;;;;;40.13;18.23;;;;;;;2.11;100.00;101212.19;5013850;28;20212;-72
2021/03/04 01:51:07;;;;;;;39.77;18.70;;;;;;;2.16;100.00;101205.38;5014011;28;20216;-72
2021/03/04 01:53:33;;;;;;;37.80;19.00;;;;;;;2.19;100.00;101200.31;5015501;28;20199;-73
2021/03/04 01:55:59;;;;;;;39.87;18.97;;;;;;;2.22;100.00;101194.38;5022902;28;20201;-72
2021/03/04 01:58:25;;;;;;;42.90;19.80;;;;;;;2.26;100.00;101198.72;5017741;28;20682;-72
2021/03/04 02:04:34;;;;;;;38.50;17.93;;;;;;;2.31;100.00;101184.22;5015325;28;20211;-72
2021/03/04 02:07:05;;;;;;;41.70;19.33;;;;;;;2.28;100.00;101174.72;5014696;28;20217;-73
2021/03/04 02:09:33;;;;;;;36.30;19.73;;;;;;;2.25;100.00;101176.38;5012152;28;20200;-73
2021/03/04 02:12:05;;;;;;;41.47;19.77;;;;;;;2.19;100.00;101173.72;5013410;28;20256;-73
2021/03/04 02:14:37;;;;;;;46.77;20.17;;;;;;;2.15;100.00;101175.38;5009910;28;20196;-73
2021/03/04 02:17:07;;;;;;;46.50;21.00;;;;;;;2.11;100.00;101170.13;5010627;28;20251;-72
2021/03/04 02:19:46;;;;;;;41.03;18.83;;;;;;;2.07;100.00;101162.34;5011712;28;20760;-73
2021/03/04 02:22:46;;;;;;;40.83;19.93;;;;;;;2.08;100.00;101163.25;5010901;28;20200;-73
2021/03/04 02:25:19;;;;;;;39.30;19.10;;;;;;;2.04;100.00;101159.75;5017504;28;20207;-73
2021/03/04 02:27:49;;;;;;;46.70;20.40;;;;;;;2.03;100.00;101158.00;5006010;28;20221;-73
2021/03/04 02:30:19;;;;;;;43.67;19.50;;;;;;;2.00;100.00;101157.94;5018026;28;20777;-73
2021/03/04 02:32:48;;;;;;;45.97;20.10;;;;;;;1.98;100.00;101161.34;5018508;28;20223;-73
2021/03/04 02:35:18;;;;;;;39.90;19.27;;;;;;;1.93;100.00;101168.97;5014323;28;20197;-72
2021/03/04 02:37:51;;;;;;;38.20;18.83;;;;;;;1.91;100.00;101164.66;5017076;28;20197;-73
2021/03/04 02:40:20;;;;;;;35.87;17.80;;;;;;;1.87;100.00;101167.16;5010351;28;20299;-73
2021/03/04 02:42:49;;;;;;;36.23;18.53;;;;;;;1.86;100.00;101161.97;5015207;28;20311;-73
2021/03/04 02:45:16;;;;;;;34.87;18.27;;;;;;;1.83;100.00;101160.25;5018582;28;20555;-72
2021/03/04 02:47:43;;;;;;;35.07;18.13;;;;;;;1.81;100.00;101155.88;5009964;28;20208;-73
2021/03/04 02:50:11;;;;;;;36.63;18.37;;;;;;;1.79;100.00;101150.72;5014349;28;20784;-73
2021/03/04 02:52:38;;;;;;;37.83;18.90;;;;;;;1.76;100.00;101149.78;5012482;28;20669;-72
2021/03/04 02:55:08;;;;;;;41.90;18.00;;;;;;;1.70;100.00;101148.84;5010868;28;20204;-73
2021/03/04 02:57:35;;;;;;;34.07;17.90;;;;;;;1.69;100.00;101141.97;5010194;28;20211;-73
2021/03/04 03:00:05;;;;;;;39.00;18.93;;;;;;;1.69;100.00;101139.41;5011637;28;20732;-72
2021/03/04 03:02:34;;;;;;;38.50;19.33;;;;;;;1.71;100.00;101142.00;5010804;28;20200;-73
2021/03/04 03:05:00;;;;;;;40.17;19.43;;;;;;;1.73;100.00;101135.19;5014637;28;20220;-73
2021/03/04 03:07:27;;;;;;;40.43;19.53;;;;;;;1.73;100.00;101131.75;5015124;28;20224;-73
2021/03/04 03:09:54;;;;;;;37.27;19.47;;;;;;;1.69;100.00;101118.84;5009243;28;20200;-72
2021/03/04 03:12:21;;;;;;;42.03;19.47;;;;;;;1.67;100.00;101130.81;5015774;28;20545;-72
2021/03/04 03:14:47;;;;;;;39.97;19.33;;;;;;;1.73;100.00;101126.63;5017920;28;20214;-72
2021/03/04 03:17:14;;;;;;;42.27;20.23;;;;;;;1.74;100.00;101129.19;5019108;28;20635;-73
2021/03/04 03:19:41;;;;;;;48.90;21.77;;;;;;;1.72;100.00;101122.31;5023873;28;20560;-72
2021/03/04 03:22:07;;;;;;;45.93;20.93;;;;;;;1.76;100.00;101126.66;5019349;28;20199;-73
2021/03/04 03:24:33;;;;;;;46.47;20.33;;;;;;;1.80;100.00;101124.19;5011888;28;20204;-72
2021/03/04 03:26:59;;;;;;;43.47;21.50;;;;;;;1.82;100.00;101117.34;5022507;28;20215;-73
2021/03/04 03:29:25;;;;;;;47.07;21.13;;;;;;;1.76;100.00;101127.53;5023832;28;20200;-73
2021/03/04 03:31:56;;;;;;;47.20;20.93;;;;;;;1.74;100.00;101118.06;5017914;28;20223;-73
2021/03/04 03:34:24;;;;;;;43.33;21.07;;;;;;;1.69;100.00;101115.41;5010785;28;20192;-72
2021/03/04 03:36:51;;;;;;;48.17;22.67;;;;;;;1.68;100.00;101111.97;5015844;28;20843;-73
2021/03/04 03:39:18;;;;;;;49.97;23.07;;;;;;;1.66;100.00;101113.63;5001434;28;20197;-73
2021/03/04 03:41:44;;;;;;;49.63;22.47;;;;;;;1.66;100.00;101115.34;5007638;28;20229;-72
2021/03/04 03:44:12;;;;;;;48.67;22.43;;;;;;;1.64;100.00;101114.47;5008440;28;20283;-72
2021/03/04 03:46:39;;;;;;;50.77;22.07;;;;;;;1.69;100.00;101113.72;5008726;28;20217;-72
2021/03/04 03:49:06;;;;;;;48.37;23.17;;;;;;;1.72;100.00;101114.59;5008655;28;20200;-73
2021/03/04 03:51:34;;;;;;;48.10;23.20;;;;;;;1.72;100.00;101117.16;5007839;28;20217;-72
2021/03/04 03:54:02;;;;;;;52.13;22.43;;;;;;;1.73;100.00;101112.06;5013654;28;20196;-73
2021/03/04 03:56:29;;;;;;;56.67;23.77;;;;;;;1.71;100.00;101111.16;5018387;28;20207;-72
2021/03/04 03:58:58;;;;;;;51.67;22.63;;;;;;;1.70;100.00;101112.84;5016187;28;20211;-72
2021/03/04 04:01:26;;;;;;;54.37;25.07;;;;;;;1.71;100.00;101113.75;4989769;28;20891;-73
2021/03/04 04:03:54;;;;;;;59.67;25.00;;;;;;;1.72;100.00;101114.59;5008899;28;20345;-73
2021/03/04 04:06:20;;;;;;;49.67;24.07;;;;;;;1.71;100.00;101111.16;5018608;28;20220;-73
2021/03/04 04:08:48;;;;;;;58.10;26.00;;;;;;;1.74;100.00;101106.06;5013053;28;20227;-72
2021/03/04 04:11:13;;;;;;;57.43;25.37;;;;;;;1.74;100.00;101103.47;5014297;28;20217;-73
2021/03/04 04:13:40;;;;;;;59.23;25.97;;;;;;;1.75;100.00;101099.22;5011705;28;20371;-73
2021/03/04 04:16:07;;;;;;;57.60;25.83;;;;;;;1.75;100.00;101096.66;5013088;28;20287;-73
2021/03/04 04:18:33;;;;;;;57.37;24.90;;;;;;;1.76;100.00;101088.97;5010824;28;20604;-73
2021/03/04 04:20:59;;;;;;;61.93;26.13;;;;;;;1.76;100.00;101082.94;5014396;28;20223;-73
2021/03/04 04:23:25;;;;;;;56.13;24.77;;;;;;;1.74;100.00;101088.06;5002278;28;20244;-73
2021/03/04 04:25:53;;;;;;;56.77;26.43;;;;;;;1.78;100.00;101084.72;5016342;28;20400;-73
2021/03/04 04:28:21;;;;;;;61.47;27.30;;;;;;;1.79;100.00;101083.88;5023214;28;20302;-73
2021/03/04 04:30:47;;;;;;;59.37;26.73;;;;;;;1.81;100.00;101089.03;5007349;28;20243;-73
2021/03/04 04:33:14;;;;;;;56.77;27.80;;;;;;;1.80;100.00;101088.19;5009213;28;20625;-73
2021/03/04 04:35:41;;;;;;;55.27;27.37;;;;;;;1.80;100.00;101088.19;5001818;28;20209;-73
2021/03/04 04:38:07;;;;;;;60.83;28.00;;;;;;;1.81;100.00;101083.91;5018659;28;20200;-73
2021/03/04 04:40:33;;;;;;;69.57;29.77;;;;;;;1.87;100.00;101078.88;5012603;28;20307;-73
2021/03/04 04:43:00;;;;;;;68.33;28.70;;;;;;;1.84;100.00;101077.09;5022947;28;20196;-72
2021/03/04 04:45:26;;;;;;;61.77;29.23;;;;;;;1.86;100.00;101061.69;5010918;28;20200;-72
2021/03/04 04:47:52;;;;;;;61.93;28.30;;;;;;;1.85;100.00;101067.69;5010243;28;20208;-72
2021/03/04 04:50:18;;;;;;;71.87;27.60;;;;;;;1.83;100.00;101065.09;5022007;28;20216;-73
2021/03/04 04:52:44;;;;;;;60.90;28.80;;;;;;;1.84;100.00;101064.25;5014646;28;20733;-73
2021/03/04 04:55:11;;;;;;;67.27;28.13;;;;;;;1.87;100.00;101054.00;5028602;28;20203;-73
2021/03/04 04:57:37;;;;;;;63.10;29.13;;;;;;;1.84;100.00;101058.25;5022806;28;20204;-73
2021/03/04 05:00:06;;;;;;;64.43;29.67;;;;;;;1.87;100.00;101053.16;5023163;28;20275;-73
2021/03/04 05:02:32;;;;;;;62.20;29.03;;;;;;;1.84;100.00;101048.81;5021112;28;20208;-73
2021/03/04 05:04:58;;;;;;;68.80;29.53;;;;;;;1.83;100.00;101048.78;5024104;28;20243;-73
2021/03/04 05:07:24;;;;;;;62.73;28.27;;;;;;;1.82;100.00;101052.22;5015294;28;20259;-73
2021/03/04 05:09:50;;;;;;;60.17;28.00;;;;;;;1.79;100.00;101045.28;5018560;28;20203;-73
2021/03/04 05:12:16;;;;;;;67.03;28.60;;;;;;;1.79;100.00;101036.72;5015722;28;20194;-73
2021/03/04 05:14:42;;;;;;;71.43;29.30;;;;;;;1.81;100.00;101035.03;5015552;28;20604;-73
2021/03/04 05:17:09;;;;;;;65.53;29.10;;;;;;;1.82;100.00;101041.94;5016069;28;20193;-73
2021/03/04 05:19:35;;;;;;;66.50;29.20;;;;;;;1.76;100.00;101034.09;5021627;28;20210;-73
2021/03/04 05:22:01;;;;;;;77.47;30.80;;;;;;;1.73;100.00;101027.22;5006192;28;20216;-73
2021/03/04 05:24:27;;;;;;;70.13;29.77;;;;;;;1.74;100.00;101018.63;5005775;28;20207;-73
2021/03/04 05:26:52;;;;;;;53.63;27.60;;;;;;;1.71;100.00;101016.03;5004465;28;20216;-73
2021/03/04 05:29:18;;;;;;;69.27;29.80;;;;;;;1.67;100.00;101029.66;5017695;28;20227;-73
2021/03/04 05:31:44;;;;;;;70.67;29.27;;;;;;;1.64;100.00;101019.34;5014199;28;20697;-73
2021/03/04 05:34:11;;;;;;;67.60;28.90;;;;;;;1.57;100.00;101018.38;5006380;28;20192;-73
2021/03/04 05:36:37;;;;;;;65.20;27.40;;;;;;;1.52;100.00;101025.16;5018366;28;20193;-73
2021/03/04 05:39:04;;;;;;;70.50;30.10;;;;;;;1.47;100.00;101022.47;5005293;28;20201;-73
2021/03/04 05:41:31;;;;;;;67.53;29.13;;;;;;;1.44;100.00;101021.56;5013496;28;20224;-72
2021/03/04 05:43:57;;;;;;;68.03;29.70;;;;;;;1.41;100.00;101030.09;5013895;28;20305;-73
2021/03/04 05:46:23;;;;;;;59.70;28.10;;;;;;;1.37;100.00;101024.88;5011672;28;20687;-73
2021/03/04 05:48:51;;;;;;;60.40;27.87;;;;;;;1.32;100.00;101029.94;5018342;28;20203;-73
2021/03/04 05:51:23;;;;;;;55.10;27.37;;;;;;;1.27;100.00;101018.72;5014009;28;20227;-73
2021/03/04 05:53:54;;;;;;;62.43;28.23;;;;;;;1.23;100.00;101019.47;5015936;28;20253;-72
2021/03/04 05:56:21;;;;;;;65.70;28.00;;;;;;;1.21;100.00;101014.31;5012674;28;20233;-72
2021/03/04 05:58:47;;;;;;;56.23;26.60;;;;;;;1.26;100.00;101011.84;5013909;28;20204;-73
2021/03/04 06:01:14;;;;;;;58.57;27.30;;;;;;;1.26;100.00;101006.69;5014802;28;20219;-73
2021/03/04 06:03:40;;;;;;;60.03;26.67;;;;;;;1.25;100.00;101010.09;5009535;28;20203;-72
2021/03/04 06:06:07;;;;;;;60.63;26.80;;;;;;;1.24;100.00;101006.66;5007394;28;20682;-72
2021/03/04 06:08:34;;;;;;;55.90;26.37;;;;;;;1.23;100.00;101002.38;5008150;28;20896;-73
2021/03/04 06:11:01;;;;;;;63.00;27.07;;;;;;;1.23;100.00;101006.63;5009450;28;20220;-72
2021/03/04 06:13:27;;;;;;;56.10;26.67;;;;;;;1.24;100.00;101011.78;5014400;28;20202;-73
2021/03/04 06:15:54;;;;;;;61.80;27.73;;;;;;;1.25;100.00;101007.50;4999927;28;20300;-72
2021/03/04 06:18:20;;;;;;;54.77;26.80;;;;;;;1.23;100.00;101012.66;4988217;28;20196;-73
2021/03/04 06:20:46;;;;;;;64.60;28.97;;;;;;;1.26;100.00;101012.69;5009051;28;20279;-73
2021/03/04 06:23:12;;;;;;;60.83;26.83;;;;;;;1.26;100.00;101009.25;4986048;28;20262;-72
2021/03/04 06:25:40;;;;;;;63.43;26.30;;;;;;;1.24;100.00;101009.22;5010956;28;20217;-72
2021/03/04 06:28:06;;;;;;;64.20;28.33;;;;;;;1.26;100.00;101014.41;5012215;28;20251;-72
2021/03/04 06:30:37;;;;;;;68.13;28.03;;;;;;;1.27;100.00;101006.72;5006244;28;20573;-72
2021/03/04 06:33:04;;;;;;;60.73;27.63;;;;;;;1.31;100.00;101007.66;5016354;28;20200;-72
2021/03/04 06:35:32;;;;;;;61.80;28.87;;;;;;;1.30;100.00;101017.06;5006445;28;20692;-73
2021/03/04 06:37:59;;;;;;;63.73;27.40;;;;;;;1.33;100.00;101019.66;5008085;28;20244;-73
2021/03/04 06:40:27;;;;;;;67.60;28.20;;;;;;;1.36;100.00;101012.88;5019011;28;20220;-72
2021/03/04 06:42:54;;;;;;;64.70;30.13;;;;;;;1.37;100.00;101015.44;5002917;28;20231;-73
2021/03/04 06:45:26;;;;;;;70.53;29.60;;;;;;;1.43;100.00;101022.41;5009206;28;20202;-72
2021/03/04 06:47:52;;;;;;;70.07;28.30;;;;;;;1.47;100.00;101022.47;5010025;28;20222;-73
2021/03/04 06:50:23;;;;;;;68.67;28.30;;;;;;;1.56;100.00;101032.06;5004477;28;20618;-73
2021/03/04 06:52:49;;;;;;;67.60;28.47;;;;;;;1.63;100.00;101025.31;5012159;28;20199;-73
2021/03/04 06:55:15;;;;;;;77.83;31.27;;;;;;;1.70;100.00;101035.72;5013116;28;20209;-73
2021/03/04 06:57:42;;;;;;;68.77;29.70;;;;;;;1.82;100.00;101027.34;5008971;28;20201;-73
2021/03/04 07:00:20;;;;;;;73.20;31.23;;;;;;;1.88;100.00;101027.47;5009515;28;20241;-73
2021/03/04 07:02:51;;;;;;;73.30;30.73;;;;;;;1.95;100.00;101032.69;5008088;28;20208;-72
2021/03/04 07:05:17;;;;;;;76.10;31.77;;;;;;;1.99;100.00;101030.19;5013959;28;20208;-73
2021/03/04 07:07:47;;;;;;;82.23;33.70;;;;;;;2.02;100.00;101022.53;5010487;28;20214;-73
2021/03/04 07:10:14;;;;;;;76.63;31.53;;;;;;;2.04;100.00;101028.56;5006441;28;20247;-73
2021/03/04 07:12:44;;;;;;;82.87;31.90;;;;;;;2.10;100.00;101030.38;5012489;28;20208;-73
2021/03/04 07:15:13;;;;;;;77.27;32.73;;;;;;;2.15;100.00;101026.16;5010847;28;20199;-72
2021/03/04 07:17:41;;;;;;;81.40;36.30;;;;;;;2.28;100.00;101028.03;5009367;28;20192;-73
2021/03/04 07:20:13;;;;;;;95.33;37.23;;;;;;;2.37;100.00;101029.03;5019596;28;20688;-73
2021/03/04 07:22:40;;;;;;;89.27;34.30;;;;;;;2.45;100.00;101030.88;5016171;28;20204;-73
2021/03/04 07:25:07;;;;;;;82.87;35.13;;;;;;;2.54;100.00;101040.41;5013726;28;20561;-73
2021/03/04 07:27:34;;;;;;;104.80;39.03;;;;;;;2.60;100.00;101032.78;5004196;28;20213;-73
2021/03/04 07:30:00;;;;;;;89.93;37.63;;;;;;;2.68;100.00;101027.72;5013995;28;20204;-73
2021/03/04 07:32:27;;;;;;;104.87;40.43;;;;;;;2.78;100.00;101029.59;5006769;28;20215;-73
2021/03/04 07:34:54;;;;;;;104.50;41.60;;;;;;;2.94;100.00;101035.78;5009046;28;20676;-73
2021/03/04 07:37:20;;;;;;;102.83;42.33;;;;;;;3.12;100.00;101039.41;5016595;28;20196;-73
2021/03/04 07:39:47;;;;;;;106.83;42.77;;;;;;;3.27;100.00;101041.28;5019371;28;20189;-73
2021/03/04 07:42:19;;;;;;;122.43;48.10;;;;;;;3.44;99.49;101044.03;5021207;28;20266;-73
2021/03/04 07:44:47;;;;;;;118.90;49.57;;;;;;;3.57;98.95;101051.03;5009902;28;20192;-73
2021/03/04 07:47:13;;;;;;;121.50;54.57;;;;;;;3.64;97.85;101047.69;5010857;28;20218;-73
2021/03/04 07:49:43;;;;;;;123.90;51.43;;;;;;;3.69;97.85;101050.28;5014162;28;20205;-73
2021/03/04 07:52:13;;;;;;;109.73;50.40;;;;;;;3.72;97.81;101046.00;4997048;28;20228;-73
2021/03/04 07:54:40;;;;;;;122.60;48.97;;;;;;;3.76;97.50;101036.59;5007672;28;20208;-73
2021/03/04 07:57:08;;;;;;;114.03;52.63;;;;;;;3.79;97.06;101027.16;5006918;28;20205;-73
2021/03/04 07:59:34;;;;;;;106.97;49.37;;;;;;;3.86;96.99;101025.50;5003028;28;20271;-73
2021/03/04 08:02:02;;;;;;;98.77;47.20;;;;;;;3.94;97.09;101033.28;5004471;28;20247;-73
2021/03/04 08:04:30;;;;;;;95.97;45.30;;;;;;;3.98;96.65;101027.31;5009743;28;20211;-73
2021/03/04 08:06:59;;;;;;;87.57;42.87;;;;;;;4.07;96.55;101023.94;5010303;28;20216;-73
2021/03/04 08:09:30;;;;;;;85.10;44.07;;;;;;;4.09;96.17;101022.22;5005523;28;20209;-73
2021/03/04 08:12:14;;;;;;;89.93;45.77;;;;;;;4.14;95.49;101025.69;5008196;28;20220;-73
2021/03/04 08:14:41;;;;;;;82.63;41.60;;;;;;;4.21;95.34;101029.19;5007118;28;20204;-73
2021/03/04 08:17:08;;;;;;;88.53;40.43;;;;;;;4.22;94.97;101021.47;5001216;28;20192;-73
2021/03/04 08:19:35;;;;;;;78.40;39.30;;;;;;;4.24;94.63;101021.44;5007522;28;20204;-73
2021/03/04 08:22:05;;;;;;;82.77;39.83;;;;;;;4.29;94.23;101023.22;5018483;28;20221;-73
2021/03/04 08:24:33;;;;;;;74.17;37.93;;;;;;;4.42;94.95;101010.38;5015832;28;20243;-73
2021/03/04 08:27:00;;;;;;;74.37;37.50;;;;;;;4.42;93.72;101018.13;5017289;28;20254;-73
2021/03/04 08:29:26;;;;;;;72.60;37.00;;;;;;;4.43;93.53;101007.78;5012534;28;20196;-73
2021/03/04 08:31:55;;;;;;;79.30;40.73;;;;;;;4.46;93.48;101004.38;5019849;28;20223;-73
2021/03/04 08:34:22;;;;;;;72.83;35.63;;;;;;;4.50;93.13;101001.81;5020636;28;20588;-73
2021/03/04 08:36:49;;;;;;;69.47;36.67;;;;;;;4.52;92.55;101013.03;5010540;28;20212;-73
2021/03/04 08:39:18;;;;;;;74.70;37.43;;;;;;;4.46;91.10;101010.38;5017172;28;20204;-73
2021/03/04 08:41:44;;;;;;;64.83;34.30;;;;;;;4.52;91.95;101018.19;5019653;28;20220;-73
2021/03/04 08:44:11;;;;;;;72.87;36.67;;;;;;;4.50;91.73;101012.16;5012581;28;20205;-73
2021/03/04 08:46:38;;;;;;;71.77;37.73;;;;;;;4.60;91.49;101015.63;5013282;28;20244;-73
2021/03/04 08:49:06;;;;;;;68.10;35.93;;;;;;;4.65;90.60;101019.09;5022017;28;20200;-73
2021/03/04 08:51:33;;;;;;;70.07;37.40;;;;;;;4.68;90.38;101020.84;5017251;28;20208;-73
2021/03/04 08:53:59;;;;;;;73.23;37.30;;;;;;;4.64;89.84;101019.09;5011697;28;20197;-73
2021/03/04 08:56:26;;;;;;;63.43;34.43;;;;;;;4.67;90.24;101014.78;5002343;28;20222;-73
2021/03/04 08:58:52;;;;;;;67.00;35.50;;;;;;;4.71;88.97;101026.88;5011375;28;20200;-73
2021/03/04 09:01:18;;;;;;;64.77;33.40;;;;;;;4.82;89.07;101020.88;4992137;28;20216;-73
2021/03/04 09:03:44;;;;;;;59.97;32.97;;;;;;;4.81;87.99;101014.84;5014453;28;20605;-73
2021/03/04 09:06:12;;;;;;;66.23;34.40;;;;;;;4.83;87.40;101020.88;5017222;28;20208;-73
2021/03/04 09:08:39;;;;;;;61.37;31.27;;;;;;;4.88;87.84;101014.00;5011037;28;20207;-73
2021/03/04 09:11:07;;;;;;;66.40;33.97;;;;;;;4.97;86.26;101007.16;5013261;28;20713;-73
2021/03/04 09:13:34;;;;;;;62.90;32.13;;;;;;;5.09;86.64;101005.47;5010406;28;20691;-73
2021/03/04 09:16:05;;;;;;;60.03;33.60;;;;;;;5.20;86.07;100996.88;5002278;28;20204;-73
2021/03/04 09:18:32;;;;;;;58.10;31.53;;;;;;;5.37;86.60;100999.50;5004604;28;20227;-73
2021/03/04 09:20:59;;;;;;;67.27;34.37;;;;;;;5.38;85.23;101001.22;5012446;28;20216;-73
2021/03/04 09:23:26;;;;;;;62.27;33.17;;;;;;;5.48;84.94;101002.94;5017075;28;20215;-73
2021/03/04 09:25:56;;;;;;;65.83;33.03;;;;;;;5.53;84.92;100997.78;5013028;28;20246;-73
2021/03/04 09:28:22;;;;;;;59.83;34.17;;;;;;;5.59;83.99;101003.81;5011034;28;20216;-73
2021/03/04 09:30:50;;;;;;;60.73;32.90;;;;;;;5.55;82.95;101002.09;5007521;28;20750;-73
2021/03/04 09:33:17;;;;;;;60.90;33.93;;;;;;;5.68;83.40;101003.84;5008018;28;20197;-73
2021/03/04 09:35:57;;;;;;;62.93;33.83;;;;;;;5.74;83.04;100995.19;5007131;28;20205;-73
2021/03/04 09:38:23;;;;;;;69.50;35.27;;;;;;;5.85;83.50;100992.59;5009851;28;20220;-73
2021/03/04 09:40:50;;;;;;;65.73;35.60;;;;;;;5.83;83.72;100983.97;5010311;28;20623;-71
2021/03/04 09:43:17;;;;;;;64.03;34.87;;;;;;;5.63;82.19;100992.63;5020102;28;20215;-71
2021/03/04 09:45:47;;;;;;;64.87;33.90;;;;;;;5.43;82.61;100987.41;5012284;28;20273;-71
2021/03/04 09:48:14;;;;;;;65.47;34.23;;;;;;;5.46;83.72;100994.34;5013804;28;20254;-71
2021/03/04 09:50:51;;;;;;;62.13;32.03;;;;;;;5.36;83.22;100983.09;5009227;28;20270;-71
2021/03/04 09:53:17;;;;;;;63.27;33.40;;;;;;;5.26;83.51;100981.41;5010488;28;20271;-71
2021/03/04 09:55:45;;;;;;;63.77;33.97;;;;;;;5.22;83.40;100982.22;5010541;28;20199;-71
2021/03/04 09:58:13;;;;;;;66.87;33.70;;;;;;;5.20;83.54;100982.22;4992370;28;20263;-71
2021/03/04 10:00:40;;;;;;;67.37;33.53;;;;;;;5.31;83.13;100990.00;4998706;28;20220;-71
2021/03/04 10:03:08;;;;;;;61.63;34.00;;;;;;;5.45;83.26;100984.84;5008949;28;20196;-71
2021/03/04 10:05:45;;;;;;;66.87;35.70;;;;;;;5.64;83.15;100994.31;5012861;28;20557;-71
2021/03/04 10:08:11;;;;;;;65.00;32.90;;;;;;;5.80;83.31;100983.97;5012819;28;20679;-71
2021/03/04 10:10:39;;;;;;;64.83;34.43;;;;;;;5.85;82.05;100996.03;5013914;28;20220;-71
2021/03/04 10:13:05;;;;;;;62.13;31.70;;;;;;;5.80;82.10;100989.16;5015348;28;20678;-71
2021/03/04 10:15:32;;;;;;;62.37;34.30;;;;;;;5.80;81.13;100992.59;5013984;28;20291;-71
2021/03/04 10:18:00;;;;;;;83.03;41.00;;;;;;;5.92;81.36;100996.06;5010544;28;20197;-71
2021/03/04 10:20:27;;;;;;;75.97;37.13;;;;;;;5.90;81.41;100987.44;5009090;28;20749;-71
2021/03/04 10:22:53;;;;;;;66.53;34.53;;;;;;;6.03;81.28;100987.44;5010232;28;20248;-72
2021/03/04 10:25:20;;;;;;;60.83;34.20;;;;;;;6.06;80.83;100987.41;5013372;28;20193;-71
2021/03/04 10:27:47;;;;;;;62.10;34.47;;;;;;;6.04;79.89;100996.91;5008861;28;20209;-71
2021/03/04 10:30:15;;;;;;;55.83;31.00;;;;;;;5.88;80.02;100984.84;5012960;28;20300;-72
2021/03/04 10:32:42;;;;;;;58.63;31.67;;;;;;;5.76;80.05;100985.72;5016250;28;21672;-71
2021/03/04 10:35:10;;;;;;;59.47;32.37;;;;;;;5.75;80.79;100983.13;5015611;28;20256;-71
2021/03/04 10:37:37;;;;;;;55.30;31.23;;;;;;;5.91;81.34;100983.97;5009817;28;20201;-71
2021/03/04 10:40:05;;;;;;;56.80;30.90;;;;;;;6.12;79.45;100993.44;5003376;28;20217;-71
2021/03/04 10:42:31;;;;;;;56.40;32.97;;;;;;;6.19;78.45;100992.56;5003399;28;20822;-71
2021/03/04 10:44:59;;;;;;;63.10;33.00;;;;;;;6.06;78.31;100989.16;5015233;28;20196;-71
2021/03/04 10:47:26;;;;;;;59.40;30.57;;;;;;;6.07;79.08;100988.31;5007445;28;20777;-72
2021/03/04 10:49:52;;;;;;;59.03;32.30;;;;;;;6.07;78.32;100985.72;5009773;28;20208;-72
2021/03/04 10:52:18;;;;;;;55.07;30.17;;;;;;;6.09;78.80;100983.13;5004689;28;20235;-72
2021/03/04 10:54:44;;;;;;;56.60;29.73;;;;;;;6.04;78.10;100991.75;5007533;28;20555;-71
2021/03/04 10:57:11;;;;;;;61.47;30.90;;;;;;;5.97;77.99;100986.59;5007835;28;20225;-71
2021/03/04 10:59:36;;;;;;;60.07;31.03;;;;;;;6.04;78.26;100983.97;5008018;28;20196;-72
2021/03/04 11:02:02;;;;;;;53.93;29.67;;;;;;;6.11;78.26;100986.56;5003563;28;20234;-71
2021/03/04 11:04:28;;;;;;;57.53;30.40;;;;;;;5.94;77.12;100994.31;5018002;28;20196;-71
2021/03/04 11:06:54;;;;;;;56.47;28.20;;;;;;;5.95;78.25;100983.97;5010510;28;20209;-71
2021/03/04 11:09:20;;;;;;;58.20;30.77;;;;;;;5.90;77.79;100993.47;5009245;28;20232;-71
2021/03/04 11:11:46;;;;;;;57.37;29.73;;;;;;;5.81;77.68;100991.75;5007310;28;20220;-71
2021/03/04 11:14:13;;;;;;;56.23;30.33;;;;;;;5.89;77.91;100996.91;5014835;28;20195;-71
2021/03/04 11:16:39;;;;;;;56.43;29.90;;;;;;;5.87;78.02;100989.16;5006944;28;20227;-71